Santa Fe Municipal Airport
KSAF : now visible

Airfield :











YOU CAN JOIN US ON...

 
LOGIN :

Register | Disclaimer

   EN    FR    IT 

 









Legend :    VFR   Marginal VFR   IFR   Intensive IFR   Very Intensive IFR
Visi :
Ceiling :
>= 8 km
>= 3000ft
5 to 8 km
1000 to 3000 ft
1500m to 5 km
500 to 1000 ft
800 to 1500m
200 to 500 ft
< 800m
< 200 ft
Symbols :   Thunderstorms  Fog  Heavy snow  Heavy precipitations  Wind > 20 kt






- Airport Elevation : 6348 ft


KSAF - Santa Fe Municipal

CURRENT METAR :
  • 231400Z 00000KT 3SM BR SCT001 SCT005 BKN050 01/01 A2995 RMK AO2 T00110011

EXPIRED METARs :
  • 231346Z AUTO 02004KT 9SM BKN003 BKN007 02/01 A2994 RMK AO2 CIG 001V006 T00170011
  • 231253Z AUTO 00000KT 7SM BKN007 02/01 A2995 RMK AO2 SLP118 T00170011
  • 231242Z AUTO 36005KT 3SM BR FEW009 01/01 A2995 RMK AO2 T00110006
  • 231233Z AUTO 32003KT 1 3/4SM BR FEW001 02/01 A2995 RMK AO2 T00170011
  • 231201Z AUTO 03004KT 10SM SCT009 03/02 A2996 RMK AO2 T00280017
  • 231153Z AUTO 01005KT 10SM BKN009 04/03 A2996 RMK AO2 SLP116 60008 70010 T00390028 10061 20033 58012
  • 231117Z AUTO VRB03KT 6SM BR FEW002 BKN009 03/03 A2997 RMK AO2 CIG 005V011 T00330028

TAF KSAF
Valid from the 23 at 12:00 until the 24 at 12:00 UTC


231131Z 2312/2412 VRB03KT 4SM BR BKN025
FM231500 31009KT 4SM -SHSN OVC010
TEMPO 2315/2319 2SM -SHSN BR OVC005
FM231900 26010KT P6SM BKN030
FM232200 27016G22KT P6SM BKN040
FM240200 30010KT P6SM SCT040



MET'MAP, your aeronautical weather chart ! - Copyright ORBIFLY December 2007 - Disclaimer

ORBIFLY MET'MAP TEAM :

Programming & Development : Alexandra Zaïnal
Concept & original design : Baudouin d'Aumeries
Assistance for programming : Marc-Olivier Méhu
Technical & hardware support : Manuel Goepfert

Contact : metmap@orbifly.com




SOURCES & CREDITS :

   NOAA       Earth
Advisory